sensor_id;sensor_type;location;lat;lon;timestamp;P1;durP1;ratioP1;P2;durP2;ratioP2
37411;SDS011;23278;52.110;6.050;2023-04-15T00:01:19;4.97;;;1.98;;
37411;SDS011;23278;52.110;6.050;2023-04-15T00:03:45;4.18;;;2.55;;
37411;SDS011;23278;52.110;6.050;2023-04-15T00:06:12;4.38;;;1.65;;
37411;SDS011;23278;52.110;6.050;2023-04-15T00:08:38;6.35;;;2.47;;
37411;SDS011;23278;52.110;6.050;2023-04-15T00:11:04;4.80;;;2.88;;
37411;SDS011;23278;52.110;6.050;2023-04-15T00:13:31;7.72;;;2.88;;
37411;SDS011;23278;52.110;6.050;2023-04-15T00:16:00;3.88;;;2.70;;
37411;SDS011;23278;52.110;6.050;2023-04-15T00:18:26;3.80;;;2.08;;
37411;SDS011;23278;52.110;6.050;2023-04-15T00:20:53;4.47;;;1.90;;
37411;SDS011;23278;52.110;6.050;2023-04-15T00:23:19;3.42;;;1.90;;
37411;SDS011;23278;52.110;6.050;2023-04-15T00:25:45;6.95;;;1.92;;
37411;SDS011;23278;52.110;6.050;2023-04-15T00:28:11;2.97;;;2.35;;
37411;SDS011;23278;52.110;6.050;2023-04-15T00:30:38;8.48;;;3.25;;
37411;SDS011;23278;52.110;6.050;2023-04-15T00:33:04;5.00;;;2.13;;
37411;SDS011;23278;52.110;6.050;2023-04-15T00:35:29;7.78;;;2.58;;
37411;SDS011;23278;52.110;6.050;2023-04-15T00:37:59;10.30;;;3.60;;
37411;SDS011;23278;52.110;6.050;2023-04-15T00:40:24;3.58;;;2.28;;
37411;SDS011;23278;52.110;6.050;2023-04-15T00:42:52;4.40;;;2.00;;
37411;SDS011;23278;52.110;6.050;2023-04-15T00:45:18;4.95;;;2.38;;
37411;SDS011;23278;52.110;6.050;2023-04-15T00:47:44;3.40;;;1.85;;
37411;SDS011;23278;52.110;6.050;2023-04-15T00:50:11;3.10;;;1.90;;
37411;SDS011;23278;52.110;6.050;2023-04-15T00:52:37;2.22;;;1.88;;
37411;SDS011;23278;52.110;6.050;2023-04-15T00:55:04;3.03;;;1.67;;
37411;SDS011;23278;52.110;6.050;2023-04-15T00:57:31;2.88;;;1.95;;
37411;SDS011;23278;52.110;6.050;2023-04-15T00:59:57;4.35;;;2.38;;
37411;SDS011;23278;52.110;6.050;2023-04-15T01:02:24;5.32;;;2.03;;
37411;SDS011;23278;52.110;6.050;2023-04-15T01:04:51;5.65;;;2.55;;
37411;SDS011;23278;52.110;6.050;2023-04-15T01:07:17;3.20;;;2.08;;
37411;SDS011;23278;52.110;6.050;2023-04-15T01:09:43;2.88;;;1.85;;
37411;SDS011;23278;52.110;6.050;2023-04-15T01:12:11;2.70;;;1.45;;
37411;SDS011;23278;52.110;6.050;2023-04-15T01:14:38;7.32;;;2.67;;
37411;SDS011;23278;52.110;6.050;2023-04-15T01:17:04;3.47;;;1.92;;
37411;SDS011;23278;52.110;6.050;2023-04-15T01:19:31;4.68;;;2.03;;
37411;SDS011;23278;52.110;6.050;2023-04-15T01:21:57;4.10;;;1.85;;
37411;SDS011;23278;52.110;6.050;2023-04-15T01:24:23;2.67;;;1.33;;
37411;SDS011;23278;52.110;6.050;2023-04-15T01:26:51;5.32;;;2.47;;
37411;SDS011;23278;52.110;6.050;2023-04-15T01:29:17;5.10;;;2.58;;
37411;SDS011;23278;52.110;6.050;2023-04-15T01:31:53;4.10;;;1.88;;
37411;SDS011;23278;52.110;6.050;2023-04-15T01:34:38;3.83;;;1.60;;
37411;SDS011;23278;52.110;6.050;2023-04-15T01:37:23;4.57;;;2.03;;
37411;SDS011;23278;52.110;6.050;2023-04-15T01:39:50;3.25;;;1.92;;
37411;SDS011;23278;52.110;6.050;2023-04-15T01:42:16;3.58;;;2.15;;
37411;SDS011;23278;52.110;6.050;2023-04-15T01:44:43;2.70;;;1.95;;
37411;SDS011;23278;52.110;6.050;2023-04-15T01:47:11;2.58;;;1.60;;
37411;SDS011;23278;52.110;6.050;2023-04-15T01:49:39;4.28;;;1.60;;
37411;SDS011;23278;52.110;6.050;2023-04-15T01:52:06;5.32;;;2.53;;
37411;SDS011;23278;52.110;6.050;2023-04-15T01:54:34;3.50;;;1.98;;
37411;SDS011;23278;52.110;6.050;2023-04-15T01:57:01;3.65;;;2.35;;
37411;SDS011;23278;52.110;6.050;2023-04-15T01:59:38;4.45;;;1.70;;
37411;SDS011;23278;52.110;6.050;2023-04-15T02:02:05;5.47;;;2.03;;
37411;SDS011;23278;52.110;6.050;2023-04-15T02:04:32;3.55;;;2.63;;
37411;SDS011;23278;52.110;6.050;2023-04-15T02:07:00;5.25;;;2.15;;
37411;SDS011;23278;52.110;6.050;2023-04-15T02:09:27;3.75;;;2.55;;
37411;SDS011;23278;52.110;6.050;2023-04-15T02:11:54;2.60;;;1.48;;
37411;SDS011;23278;52.110;6.050;2023-04-15T02:14:21;4.95;;;2.03;;
37411;SDS011;23278;52.110;6.050;2023-04-15T02:16:49;5.68;;;1.77;;
37411;SDS011;23278;52.110;6.050;2023-04-15T02:19:16;5.18;;;1.45;;
37411;SDS011;23278;52.110;6.050;2023-04-15T02:21:43;2.47;;;1.40;;
37411;SDS011;23278;52.110;6.050;2023-04-15T02:24:10;3.40;;;1.73;;
37411;SDS011;23278;52.110;6.050;2023-04-15T02:26:41;5.07;;;1.95;;
37411;SDS011;23278;52.110;6.050;2023-04-15T02:29:08;4.25;;;1.63;;
37411;SDS011;23278;52.110;6.050;2023-04-15T02:31:35;3.15;;;1.55;;
37411;SDS011;23278;52.110;6.050;2023-04-15T02:34:05;2.85;;;2.10;;
37411;SDS011;23278;52.110;6.050;2023-04-15T02:36:33;5.25;;;2.65;;
37411;SDS011;23278;52.110;6.050;2023-04-15T02:39:00;3.88;;;2.38;;
37411;SDS011;23278;52.110;6.050;2023-04-15T02:41:28;5.40;;;2.08;;
37411;SDS011;23278;52.110;6.050;2023-04-15T02:43:56;3.17;;;2.55;;
37411;SDS011;23278;52.110;6.050;2023-04-15T02:46:23;3.03;;;1.42;;
37411;SDS011;23278;52.110;6.050;2023-04-15T02:48:51;7.93;;;3.47;;
37411;SDS011;23278;52.110;6.050;2023-04-15T02:51:20;3.28;;;2.58;;
37411;SDS011;23278;52.110;6.050;2023-04-15T02:53:48;4.03;;;2.78;;
37411;SDS011;23278;52.110;6.050;2023-04-15T02:56:16;6.78;;;2.90;;
37411;SDS011;23278;52.110;6.050;2023-04-15T02:58:44;4.63;;;1.88;;
37411;SDS011;23278;52.110;6.050;2023-04-15T03:01:12;4.15;;;2.35;;
37411;SDS011;23278;52.110;6.050;2023-04-15T03:03:40;4.55;;;2.28;;
37411;SDS011;23278;52.110;6.050;2023-04-15T03:06:07;4.68;;;2.80;;
37411;SDS011;23278;52.110;6.050;2023-04-15T03:08:35;6.13;;;2.63;;
37411;SDS011;23278;52.110;6.050;2023-04-15T03:11:02;4.45;;;2.75;;
37411;SDS011;23278;52.110;6.050;2023-04-15T03:13:30;5.35;;;2.63;;
37411;SDS011;23278;52.110;6.050;2023-04-15T03:16:00;6.53;;;2.83;;
37411;SDS011;23278;52.110;6.050;2023-04-15T03:18:28;5.03;;;2.58;;
37411;SDS011;23278;52.110;6.050;2023-04-15T03:20:55;5.20;;;2.47;;
37411;SDS011;23278;52.110;6.050;2023-04-15T03:23:23;6.22;;;2.47;;
37411;SDS011;23278;52.110;6.050;2023-04-15T03:25:51;6.63;;;2.92;;
37411;SDS011;23278;52.110;6.050;2023-04-15T03:28:22;4.35;;;2.97;;
37411;SDS011;23278;52.110;6.050;2023-04-15T03:30:50;4.47;;;2.63;;
37411;SDS011;23278;52.110;6.050;2023-04-15T03:33:17;5.68;;;2.67;;
37411;SDS011;23278;52.110;6.050;2023-04-15T03:35:44;4.40;;;3.15;;
37411;SDS011;23278;52.110;6.050;2023-04-15T03:38:11;10.38;;;3.53;;
37411;SDS011;23278;52.110;6.050;2023-04-15T03:40:39;4.72;;;2.58;;
37411;SDS011;23278;52.110;6.050;2023-04-15T03:43:07;5.78;;;2.83;;
37411;SDS011;23278;52.110;6.050;2023-04-15T03:45:34;3.95;;;2.65;;
37411;SDS011;23278;52.110;6.050;2023-04-15T03:48:02;3.92;;;3.15;;
37411;SDS011;23278;52.110;6.050;2023-04-15T03:50:29;4.47;;;2.85;;
37411;SDS011;23278;52.110;6.050;2023-04-15T03:52:56;5.40;;;2.95;;
37411;SDS011;23278;52.110;6.050;2023-04-15T03:55:23;3.67;;;3.13;;
37411;SDS011;23278;52.110;6.050;2023-04-15T03:57:50;3.00;;;2.30;;
37411;SDS011;23278;52.110;6.050;2023-04-15T04:00:18;5.45;;;4.07;;
37411;SDS011;23278;52.110;6.050;2023-04-15T04:02:46;4.03;;;2.47;;
37411;SDS011;23278;52.110;6.050;2023-04-15T04:05:13;4.80;;;3.22;;
37411;SDS011;23278;52.110;6.050;2023-04-15T04:07:40;6.05;;;2.75;;
37411;SDS011;23278;52.110;6.050;2023-04-15T04:10:07;5.65;;;3.80;;
37411;SDS011;23278;52.110;6.050;2023-04-15T04:12:34;5.28;;;3.03;;
37411;SDS011;23278;52.110;6.050;2023-04-15T04:15:02;3.90;;;2.63;;
37411;SDS011;23278;52.110;6.050;2023-04-15T04:17:29;5.80;;;3.13;;
37411;SDS011;23278;52.110;6.050;2023-04-15T04:19:56;6.68;;;3.95;;
37411;SDS011;23278;52.110;6.050;2023-04-15T04:22:23;4.40;;;3.00;;
37411;SDS011;23278;52.110;6.050;2023-04-15T04:24:51;4.32;;;3.33;;
37411;SDS011;23278;52.110;6.050;2023-04-15T04:27:18;5.03;;;3.13;;
37411;SDS011;23278;52.110;6.050;2023-04-15T04:29:45;6.13;;;3.33;;
37411;SDS011;23278;52.110;6.050;2023-04-15T04:32:13;5.15;;;3.10;;
37411;SDS011;23278;52.110;6.050;2023-04-15T04:34:40;4.35;;;3.53;;
37411;SDS011;23278;52.110;6.050;2023-04-15T04:37:07;4.63;;;2.92;;
37411;SDS011;23278;52.110;6.050;2023-04-15T04:39:34;4.10;;;2.67;;
37411;SDS011;23278;52.110;6.050;2023-04-15T04:42:01;4.10;;;3.10;;
37411;SDS011;23278;52.110;6.050;2023-04-15T04:44:28;5.57;;;2.90;;
37411;SDS011;23278;52.110;6.050;2023-04-15T04:46:56;3.45;;;2.80;;
37411;SDS011;23278;52.110;6.050;2023-04-15T04:49:43;5.32;;;3.72;;
37411;SDS011;23278;52.110;6.050;2023-04-15T04:52:10;4.80;;;3.85;;
37411;SDS011;23278;52.110;6.050;2023-04-15T04:54:38;4.70;;;3.28;;
37411;SDS011;23278;52.110;6.050;2023-04-15T04:57:05;7.07;;;5.10;;
37411;SDS011;23278;52.110;6.050;2023-04-15T04:59:33;4.55;;;3.05;;
37411;SDS011;23278;52.110;6.050;2023-04-15T05:02:00;5.13;;;3.55;;
37411;SDS011;23278;52.110;6.050;2023-04-15T05:04:28;5.05;;;2.80;;
37411;SDS011;23278;52.110;6.050;2023-04-15T05:06:57;5.65;;;3.38;;
37411;SDS011;23278;52.110;6.050;2023-04-15T05:09:25;5.18;;;3.10;;
37411;SDS011;23278;52.110;6.050;2023-04-15T05:11:52;3.78;;;2.50;;
37411;SDS011;23278;52.110;6.050;2023-04-15T05:14:19;5.53;;;2.97;;
37411;SDS011;23278;52.110;6.050;2023-04-15T05:16:46;4.00;;;2.85;;
37411;SDS011;23278;52.110;6.050;2023-04-15T05:19:13;6.03;;;3.33;;
37411;SDS011;23278;52.110;6.050;2023-04-15T05:21:40;6.18;;;3.42;;
37411;SDS011;23278;52.110;6.050;2023-04-15T05:24:08;6.78;;;2.90;;
37411;SDS011;23278;52.110;6.050;2023-04-15T05:26:35;4.65;;;3.40;;
37411;SDS011;23278;52.110;6.050;2023-04-15T05:29:02;6.47;;;3.85;;
37411;SDS011;23278;52.110;6.050;2023-04-15T05:31:32;5.65;;;4.28;;
37411;SDS011;23278;52.110;6.050;2023-04-15T05:33:59;5.45;;;3.47;;
37411;SDS011;23278;52.110;6.050;2023-04-15T05:36:26;5.50;;;4.45;;
37411;SDS011;23278;52.110;6.050;2023-04-15T05:38:54;8.40;;;4.68;;
37411;SDS011;23278;52.110;6.050;2023-04-15T05:41:21;9.90;;;6.05;;
37411;SDS011;23278;52.110;6.050;2023-04-15T05:43:48;5.28;;;3.40;;
37411;SDS011;23278;52.110;6.050;2023-04-15T05:46:15;4.70;;;3.65;;
37411;SDS011;23278;52.110;6.050;2023-04-15T05:48:42;4.07;;;3.10;;
37411;SDS011;23278;52.110;6.050;2023-04-15T05:51:09;7.82;;;4.13;;
37411;SDS011;23278;52.110;6.050;2023-04-15T05:53:37;7.80;;;3.65;;
37411;SDS011;23278;52.110;6.050;2023-04-15T05:56:04;5.20;;;3.25;;
37411;SDS011;23278;52.110;6.050;2023-04-15T05:58:31;5.47;;;3.55;;
37411;SDS011;23278;52.110;6.050;2023-04-15T06:00:58;5.22;;;3.17;;
37411;SDS011;23278;52.110;6.050;2023-04-15T06:03:25;4.20;;;3.10;;
37411;SDS011;23278;52.110;6.050;2023-04-15T06:05:52;3.72;;;2.38;;
37411;SDS011;23278;52.110;6.050;2023-04-15T06:08:19;4.97;;;3.88;;
37411;SDS011;23278;52.110;6.050;2023-04-15T06:10:47;4.60;;;3.67;;
37411;SDS011;23278;52.110;6.050;2023-04-15T06:13:14;4.40;;;3.25;;
37411;SDS011;23278;52.110;6.050;2023-04-15T06:15:42;4.90;;;3.78;;
37411;SDS011;23278;52.110;6.050;2023-04-15T06:18:09;5.93;;;4.25;;
37411;SDS011;23278;52.110;6.050;2023-04-15T06:20:37;5.00;;;3.05;;
37411;SDS011;23278;52.110;6.050;2023-04-15T06:23:04;5.32;;;4.18;;
37411;SDS011;23278;52.110;6.050;2023-04-15T06:25:31;4.78;;;3.17;;
37411;SDS011;23278;52.110;6.050;2023-04-15T06:27:58;4.20;;;3.63;;
37411;SDS011;23278;52.110;6.050;2023-04-15T06:30:25;4.53;;;3.63;;
37411;SDS011;23278;52.110;6.050;2023-04-15T06:32:53;8.90;;;4.35;;
37411;SDS011;23278;52.110;6.050;2023-04-15T06:35:21;3.95;;;3.13;;
37411;SDS011;23278;52.110;6.050;2023-04-15T06:37:48;4.13;;;3.50;;
37411;SDS011;23278;52.110;6.050;2023-04-15T06:40:15;4.22;;;3.00;;
37411;SDS011;23278;52.110;6.050;2023-04-15T06:42:43;5.20;;;4.57;;
37411;SDS011;23278;52.110;6.050;2023-04-15T06:45:10;5.88;;;4.43;;
37411;SDS011;23278;52.110;6.050;2023-04-15T06:47:37;6.70;;;4.75;;
37411;SDS011;23278;52.110;6.050;2023-04-15T06:50:04;6.03;;;4.85;;
37411;SDS011;23278;52.110;6.050;2023-04-15T06:52:32;8.93;;;6.50;;
37411;SDS011;23278;52.110;6.050;2023-04-15T06:54:59;14.73;;;7.20;;
37411;SDS011;23278;52.110;6.050;2023-04-15T06:57:27;8.93;;;7.45;;
37411;SDS011;23278;52.110;6.050;2023-04-15T06:59:54;7.78;;;5.60;;
37411;SDS011;23278;52.110;6.050;2023-04-15T07:02:22;6.45;;;5.68;;
37411;SDS011;23278;52.110;6.050;2023-04-15T07:04:49;8.98;;;5.18;;
37411;SDS011;23278;52.110;6.050;2023-04-15T07:07:16;9.25;;;5.68;;
37411;SDS011;23278;52.110;6.050;2023-04-15T07:09:43;6.82;;;5.50;;
37411;SDS011;23278;52.110;6.050;2023-04-15T07:12:10;6.63;;;5.70;;
37411;SDS011;23278;52.110;6.050;2023-04-15T07:14:38;8.55;;;7.00;;
37411;SDS011;23278;52.110;6.050;2023-04-15T07:17:05;9.02;;;5.82;;
37411;SDS011;23278;52.110;6.050;2023-04-15T07:19:32;6.28;;;5.68;;
37411;SDS011;23278;52.110;6.050;2023-04-15T07:22:00;9.15;;;5.82;;
37411;SDS011;23278;52.110;6.050;2023-04-15T07:24:27;8.30;;;6.78;;
37411;SDS011;23278;52.110;6.050;2023-04-15T07:26:54;7.72;;;6.47;;
37411;SDS011;23278;52.110;6.050;2023-04-15T07:29:25;6.53;;;5.53;;
37411;SDS011;23278;52.110;6.050;2023-04-15T07:31:52;8.45;;;6.63;;
37411;SDS011;23278;52.110;6.050;2023-04-15T07:34:19;7.38;;;5.60;;
37411;SDS011;23278;52.110;6.050;2023-04-15T07:36:46;10.02;;;8.90;;
37411;SDS011;23278;52.110;6.050;2023-04-15T07:39:37;9.48;;;8.40;;
37411;SDS011;23278;52.110;6.050;2023-04-15T07:42:06;8.68;;;6.43;;
37411;SDS011;23278;52.110;6.050;2023-04-15T07:44:34;8.68;;;7.32;;
37411;SDS011;23278;52.110;6.050;2023-04-15T07:47:01;7.88;;;6.97;;
37411;SDS011;23278;52.110;6.050;2023-04-15T07:49:29;9.38;;;7.25;;
37411;SDS011;23278;52.110;6.050;2023-04-15T07:51:56;6.88;;;5.75;;
37411;SDS011;23278;52.110;6.050;2023-04-15T07:54:25;5.57;;;4.88;;
37411;SDS011;23278;52.110;6.050;2023-04-15T07:56:52;4.88;;;4.30;;
37411;SDS011;23278;52.110;6.050;2023-04-15T07:59:19;4.53;;;4.03;;
37411;SDS011;23278;52.110;6.050;2023-04-15T08:01:47;4.47;;;3.22;;
37411;SDS011;23278;52.110;6.050;2023-04-15T08:04:14;5.32;;;3.38;;
37411;SDS011;23278;52.110;6.050;2023-04-15T08:06:41;5.40;;;4.70;;
37411;SDS011;23278;52.110;6.050;2023-04-15T08:09:09;4.93;;;4.32;;
37411;SDS011;23278;52.110;6.050;2023-04-15T08:11:36;6.40;;;4.45;;
37411;SDS011;23278;52.110;6.050;2023-04-15T08:14:04;4.15;;;2.47;;
37411;SDS011;23278;52.110;6.050;2023-04-15T08:16:31;4.00;;;2.78;;
37411;SDS011;23278;52.110;6.050;2023-04-15T08:18:58;4.13;;;2.75;;
37411;SDS011;23278;52.110;6.050;2023-04-15T08:21:25;4.78;;;2.67;;
37411;SDS011;23278;52.110;6.050;2023-04-15T08:23:53;4.55;;;2.95;;
37411;SDS011;23278;52.110;6.050;2023-04-15T08:26:20;4.22;;;2.78;;
37411;SDS011;23278;52.110;6.050;2023-04-15T08:28:48;4.30;;;3.08;;
37411;SDS011;23278;52.110;6.050;2023-04-15T08:31:16;3.20;;;2.25;;
37411;SDS011;23278;52.110;6.050;2023-04-15T08:33:44;4.05;;;3.47;;
37411;SDS011;23278;52.110;6.050;2023-04-15T08:36:12;3.20;;;2.65;;
37411;SDS011;23278;52.110;6.050;2023-04-15T08:38:39;6.22;;;3.03;;
37411;SDS011;23278;52.110;6.050;2023-04-15T08:41:08;3.97;;;2.45;;
37411;SDS011;23278;52.110;6.050;2023-04-15T08:43:46;6.97;;;3.42;;
37411;SDS011;23278;52.110;6.050;2023-04-15T08:46:20;3.78;;;2.65;;
37411;SDS011;23278;52.110;6.050;2023-04-15T08:48:48;3.42;;;2.65;;
37411;SDS011;23278;52.110;6.050;2023-04-15T08:51:16;4.18;;;3.35;;
37411;SDS011;23278;52.110;6.050;2023-04-15T08:53:44;4.10;;;3.60;;
37411;SDS011;23278;52.110;6.050;2023-04-15T08:56:14;4.25;;;3.50;;
37411;SDS011;23278;52.110;6.050;2023-04-15T08:58:44;5.88;;;3.90;;
37411;SDS011;23278;52.110;6.050;2023-04-15T09:01:13;4.05;;;2.60;;
37411;SDS011;23278;52.110;6.050;2023-04-15T09:03:40;7.88;;;3.17;;
37411;SDS011;23278;52.110;6.050;2023-04-15T09:06:07;3.40;;;2.85;;
37411;SDS011;23278;52.110;6.050;2023-04-15T09:08:34;2.85;;;2.13;;
37411;SDS011;23278;52.110;6.050;2023-04-15T09:11:02;3.60;;;2.58;;
37411;SDS011;23278;52.110;6.050;2023-04-15T09:13:30;6.30;;;2.78;;
37411;SDS011;23278;52.110;6.050;2023-04-15T09:15:57;4.47;;;2.65;;
37411;SDS011;23278;52.110;6.050;2023-04-15T09:18:27;3.42;;;2.50;;
37411;SDS011;23278;52.110;6.050;2023-04-15T09:20:55;6.00;;;3.13;;
37411;SDS011;23278;52.110;6.050;2023-04-15T09:23:31;4.90;;;3.15;;
37411;SDS011;23278;52.110;6.050;2023-04-15T09:25:59;3.75;;;3.33;;
37411;SDS011;23278;52.110;6.050;2023-04-15T09:28:27;4.38;;;2.70;;
37411;SDS011;23278;52.110;6.050;2023-04-15T09:30:58;5.00;;;3.00;;
37411;SDS011;23278;52.110;6.050;2023-04-15T09:33:26;5.20;;;3.50;;
37411;SDS011;23278;52.110;6.050;2023-04-15T09:36:04;3.10;;;2.50;;
37411;SDS011;23278;52.110;6.050;2023-04-15T09:38:32;3.78;;;2.78;;
37411;SDS011;23278;52.110;6.050;2023-04-15T09:40:59;2.80;;;1.63;;
37411;SDS011;23278;52.110;6.050;2023-04-15T09:43:36;3.47;;;2.13;;
37411;SDS011;23278;52.110;6.050;2023-04-15T09:46:06;3.95;;;2.03;;
37411;SDS011;23278;52.110;6.050;2023-04-15T09:48:33;2.55;;;1.90;;
37411;SDS011;23278;52.110;6.050;2023-04-15T09:51:00;3.38;;;2.33;;
37411;SDS011;23278;52.110;6.050;2023-04-15T09:53:28;3.38;;;2.75;;
37411;SDS011;23278;52.110;6.050;2023-04-15T09:55:59;3.83;;;3.42;;
37411;SDS011;23278;52.110;6.050;2023-04-15T09:58:28;3.22;;;2.13;;
37411;SDS011;23278;52.110;6.050;2023-04-15T10:00:57;3.67;;;2.35;;
37411;SDS011;23278;52.110;6.050;2023-04-15T10:03:26;2.85;;;2.03;;
37411;SDS011;23278;52.110;6.050;2023-04-15T10:05:59;2.40;;;1.45;;
37411;SDS011;23278;52.110;6.050;2023-04-15T10:08:29;1.80;;;1.33;;
37411;SDS011;23278;52.110;6.050;2023-04-15T10:10:58;5.65;;;2.63;;
37411;SDS011;23278;52.110;6.050;2023-04-15T10:13:28;2.88;;;1.63;;
37411;SDS011;23278;52.110;6.050;2023-04-15T10:16:12;3.03;;;1.33;;
37411;SDS011;23278;52.110;6.050;2023-04-15T10:18:42;4.40;;;1.80;;
37411;SDS011;23278;52.110;6.050;2023-04-15T10:21:11;4.43;;;2.05;;
37411;SDS011;23278;52.110;6.050;2023-04-15T10:23:41;3.58;;;2.08;;
37411;SDS011;23278;52.110;6.050;2023-04-15T10:26:09;2.17;;;1.52;;
37411;SDS011;23278;52.110;6.050;2023-04-15T10:28:38;3.92;;;1.48;;
37411;SDS011;23278;52.110;6.050;2023-04-15T10:31:05;4.30;;;1.48;;
37411;SDS011;23278;52.110;6.050;2023-04-15T10:33:32;2.55;;;1.30;;
37411;SDS011;23278;52.110;6.050;2023-04-15T10:36:01;3.70;;;1.58;;
37411;SDS011;23278;52.110;6.050;2023-04-15T10:41:14;3.00;;;1.67;;
37411;SDS011;23278;52.110;6.050;2023-04-15T10:43:46;2.75;;;2.05;;
37411;SDS011;23278;52.110;6.050;2023-04-15T10:51:36;2.13;;;1.30;;
37411;SDS011;23278;52.110;6.050;2023-04-15T10:54:08;2.58;;;1.30;;
37411;SDS011;23278;52.110;6.050;2023-04-15T10:57:26;3.35;;;1.50;;
37411;SDS011;23278;52.110;6.050;2023-04-15T10:59:28;1.48;;;1.30;;
37411;SDS011;23278;52.110;6.050;2023-04-15T11:01:57;2.85;;;1.38;;
37411;SDS011;23278;52.110;6.050;2023-04-15T11:12:48;5.53;;;2.05;;
37411;SDS011;23278;52.110;6.050;2023-04-15T11:15:37;1.83;;;1.10;;
37411;SDS011;23278;52.110;6.050;2023-04-15T11:18:17;2.53;;;1.20;;
37411;SDS011;23278;52.110;6.050;2023-04-15T11:23:17;7.28;;;1.77;;
37411;SDS011;23278;52.110;6.050;2023-04-15T11:25:45;1.80;;;1.00;;
37411;SDS011;23278;52.110;6.050;2023-04-15T11:28:13;2.53;;;1.00;;
37411;SDS011;23278;52.110;6.050;2023-04-15T11:30:41;1.40;;;0.80;;
37411;SDS011;23278;52.110;6.050;2023-04-15T11:33:11;2.30;;;1.25;;
37411;SDS011;23278;52.110;6.050;2023-04-15T11:35:39;2.35;;;0.80;;
37411;SDS011;23278;52.110;6.050;2023-04-15T11:38:08;1.98;;;0.80;;
37411;SDS011;23278;52.110;6.050;2023-04-15T11:43:07;1.55;;;0.80;;
37411;SDS011;23278;52.110;6.050;2023-04-15T11:45:36;1.30;;;0.70;;
37411;SDS011;23278;52.110;6.050;2023-04-15T11:48:08;2.20;;;1.42;;
37411;SDS011;23278;52.110;6.050;2023-04-15T11:50:36;3.47;;;0.93;;
37411;SDS011;23278;52.110;6.050;2023-04-15T11:53:05;1.98;;;1.00;;
37411;SDS011;23278;52.110;6.050;2023-04-15T11:58:15;1.83;;;0.90;;
37411;SDS011;23278;52.110;6.050;2023-04-15T12:00:47;1.85;;;0.80;;
37411;SDS011;23278;52.110;6.050;2023-04-15T12:11:21;3.75;;;1.05;;
37411;SDS011;23278;52.110;6.050;2023-04-15T12:13:54;1.33;;;0.60;;
37411;SDS011;23278;52.110;6.050;2023-04-15T12:16:22;1.15;;;0.55;;
37411;SDS011;23278;52.110;6.050;2023-04-15T12:18:52;1.05;;;0.50;;
37411;SDS011;23278;52.110;6.050;2023-04-15T12:21:27;1.55;;;0.60;;
37411;SDS011;23278;52.110;6.050;2023-04-15T12:24:00;0.68;;;0.50;;
37411;SDS011;23278;52.110;6.050;2023-04-15T12:26:35;0.98;;;0.50;;
37411;SDS011;23278;52.110;6.050;2023-04-15T12:29:06;1.17;;;0.50;;
37411;SDS011;23278;52.110;6.050;2023-04-15T12:31:36;1.88;;;0.65;;
37411;SDS011;23278;52.110;6.050;2023-04-15T12:34:11;0.93;;;0.45;;
37411;SDS011;23278;52.110;6.050;2023-04-15T12:36:38;1.58;;;0.40;;
37411;SDS011;23278;52.110;6.050;2023-04-15T12:39:04;5.20;;;0.57;;
37411;SDS011;23278;52.110;6.050;2023-04-15T12:41:30;1.80;;;0.50;;
37411;SDS011;23278;52.110;6.050;2023-04-15T12:43:57;2.10;;;0.63;;
37411;SDS011;23278;52.110;6.050;2023-04-15T12:46:23;1.92;;;0.70;;
37411;SDS011;23278;52.110;6.050;2023-04-15T12:48:50;1.23;;;0.60;;
37411;SDS011;23278;52.110;6.050;2023-04-15T12:51:19;1.45;;;0.50;;
37411;SDS011;23278;52.110;6.050;2023-04-15T12:53:48;1.55;;;0.60;;
37411;SDS011;23278;52.110;6.050;2023-04-15T12:56:16;3.38;;;0.85;;
37411;SDS011;23278;52.110;6.050;2023-04-15T12:58:42;0.93;;;0.57;;
37411;SDS011;23278;52.110;6.050;2023-04-15T13:01:09;1.52;;;0.70;;
37411;SDS011;23278;52.110;6.050;2023-04-15T13:03:35;2.33;;;0.52;;
37411;SDS011;23278;52.110;6.050;2023-04-15T13:06:01;1.67;;;0.80;;
37411;SDS011;23278;52.110;6.050;2023-04-15T13:08:29;2.15;;;0.60;;
37411;SDS011;23278;52.110;6.050;2023-04-15T13:10:55;2.15;;;0.57;;
37411;SDS011;23278;52.110;6.050;2023-04-15T13:13:21;2.25;;;0.63;;
37411;SDS011;23278;52.110;6.050;2023-04-15T13:16:05;1.40;;;0.60;;
37411;SDS011;23278;52.110;6.050;2023-04-15T13:18:32;0.60;;;0.32;;
37411;SDS011;23278;52.110;6.050;2023-04-15T13:20:59;0.65;;;0.40;;
37411;SDS011;23278;52.110;6.050;2023-04-15T13:23:25;1.90;;;0.55;;
37411;SDS011;23278;52.110;6.050;2023-04-15T13:25:51;1.13;;;0.40;;
37411;SDS011;23278;52.110;6.050;2023-04-15T13:28:17;1.83;;;0.77;;
37411;SDS011;23278;52.110;6.050;2023-04-15T13:30:43;1.23;;;0.45;;
37411;SDS011;23278;52.110;6.050;2023-04-15T13:33:10;3.47;;;0.60;;
37411;SDS011;23278;52.110;6.050;2023-04-15T13:35:36;0.80;;;0.50;;
37411;SDS011;23278;52.110;6.050;2023-04-15T13:38:02;1.58;;;0.40;;
37411;SDS011;23278;52.110;6.050;2023-04-15T13:40:28;0.63;;;0.40;;
37411;SDS011;23278;52.110;6.050;2023-04-15T13:42:54;2.75;;;0.73;;
37411;SDS011;23278;52.110;6.050;2023-04-15T13:45:20;1.08;;;0.43;;
37411;SDS011;23278;52.110;6.050;2023-04-15T13:47:46;0.70;;;0.40;;
37411;SDS011;23278;52.110;6.050;2023-04-15T13:50:12;0.52;;;0.47;;
37411;SDS011;23278;52.110;6.050;2023-04-15T13:52:38;1.75;;;0.63;;
37411;SDS011;23278;52.110;6.050;2023-04-15T13:55:04;3.88;;;0.50;;
37411;SDS011;23278;52.110;6.050;2023-04-15T13:57:31;1.70;;;1.00;;
37411;SDS011;23278;52.110;6.050;2023-04-15T13:59:57;3.17;;;0.50;;
37411;SDS011;23278;52.110;6.050;2023-04-15T14:02:23;0.98;;;0.63;;
37411;SDS011;23278;52.110;6.050;2023-04-15T14:04:49;1.67;;;0.60;;
37411;SDS011;23278;52.110;6.050;2023-04-15T14:07:15;1.52;;;0.55;;
37411;SDS011;23278;52.110;6.050;2023-04-15T14:09:42;0.98;;;0.70;;
37411;SDS011;23278;52.110;6.050;2023-04-15T14:12:08;1.15;;;0.57;;
37411;SDS011;23278;52.110;6.050;2023-04-15T14:14:35;3.10;;;0.65;;
37411;SDS011;23278;52.110;6.050;2023-04-15T14:17:01;3.50;;;0.70;;
37411;SDS011;23278;52.110;6.050;2023-04-15T14:19:29;2.25;;;1.10;;
37411;SDS011;23278;52.110;6.050;2023-04-15T14:21:55;2.22;;;1.10;;
37411;SDS011;23278;52.110;6.050;2023-04-15T14:24:21;1.58;;;0.60;;
37411;SDS011;23278;52.110;6.050;2023-04-15T14:26:47;1.33;;;0.73;;
37411;SDS011;23278;52.110;6.050;2023-04-15T14:29:13;2.25;;;0.73;;
37411;SDS011;23278;52.110;6.050;2023-04-15T14:31:39;2.30;;;0.70;;
37411;SDS011;23278;52.110;6.050;2023-04-15T14:34:05;2.53;;;1.50;;
37411;SDS011;23278;52.110;6.050;2023-04-15T14:36:31;2.60;;;1.05;;
37411;SDS011;23278;52.110;6.050;2023-04-15T14:38:57;1.70;;;0.75;;
37411;SDS011;23278;52.110;6.050;2023-04-15T14:41:23;2.42;;;1.00;;
37411;SDS011;23278;52.110;6.050;2023-04-15T14:43:49;2.65;;;0.90;;
37411;SDS011;23278;52.110;6.050;2023-04-15T14:46:16;2.03;;;0.70;;
37411;SDS011;23278;52.110;6.050;2023-04-15T14:48:42;2.63;;;0.80;;
37411;SDS011;23278;52.110;6.050;2023-04-15T14:51:08;3.15;;;0.70;;
37411;SDS011;23278;52.110;6.050;2023-04-15T14:53:33;1.83;;;0.90;;
37411;SDS011;23278;52.110;6.050;2023-04-15T14:56:00;2.28;;;0.70;;
37411;SDS011;23278;52.110;6.050;2023-04-15T14:58:25;3.10;;;1.15;;
37411;SDS011;23278;52.110;6.050;2023-04-15T15:00:51;6.85;;;1.40;;
37411;SDS011;23278;52.110;6.050;2023-04-15T15:03:17;4.13;;;1.20;;
37411;SDS011;23278;52.110;6.050;2023-04-15T15:05:44;4.18;;;1.15;;
37411;SDS011;23278;52.110;6.050;2023-04-15T15:08:11;6.13;;;0.93;;
37411;SDS011;23278;52.110;6.050;2023-04-15T15:10:38;6.38;;;0.85;;
37411;SDS011;23278;52.110;6.050;2023-04-15T15:13:06;4.00;;;1.20;;
37411;SDS011;23278;52.110;6.050;2023-04-15T15:15:33;2.67;;;0.93;;
37411;SDS011;23278;52.110;6.050;2023-04-15T15:18:01;4.18;;;1.30;;
37411;SDS011;23278;52.110;6.050;2023-04-15T15:20:27;3.30;;;1.13;;
37411;SDS011;23278;52.110;6.050;2023-04-15T15:22:54;3.80;;;1.10;;
37411;SDS011;23278;52.110;6.050;2023-04-15T15:25:20;4.78;;;1.00;;